createdAt,value
2023-02-09T00:02:51.891Z,976.33
2023-02-09T00:08:23.282Z,976.38
2023-02-09T00:13:59.240Z,976.28
2023-02-09T00:19:34.304Z,976.19
2023-02-09T00:25:03.012Z,976.1
2023-02-09T00:30:34.835Z,976.44
2023-02-09T00:36:06.657Z,976.06
2023-02-09T00:41:38.202Z,975.99
2023-02-09T00:47:09.779Z,976.06
2023-02-09T00:52:42.219Z,976.22
2023-02-09T00:58:13.321Z,976.42
2023-02-09T01:03:44.933Z,976.43
2023-02-09T01:09:18.117Z,976.37
2023-02-09T01:14:52.821Z,976.74
2023-02-09T01:20:24.693Z,976.74
2023-02-09T01:25:56.661Z,976.84
2023-02-09T01:31:28.615Z,976.51
2023-02-09T01:37:00.320Z,975.8
2023-02-09T01:42:31.496Z,975.77
2023-02-09T01:48:03.063Z,975.41
2023-02-09T01:53:36.196Z,976.11
2023-02-09T01:59:06.830Z,976.25
2023-02-09T02:04:38.334Z,976.48
2023-02-09T02:10:10.251Z,976.02
2023-02-09T02:15:47.688Z,976.52
2023-02-09T02:21:17.840Z,975.85
2023-02-09T02:26:49.639Z,975.7
2023-02-09T02:32:21.385Z,975.54
2023-02-09T02:37:53.637Z,974.65
2023-02-09T02:43:24.925Z,975.23
2023-02-09T02:48:56.730Z,975.38
2023-02-09T02:54:28.632Z,974.67
2023-02-09T03:00:00.476Z,974.38
2023-02-09T03:05:32.133Z,974.05
2023-02-09T03:11:03.655Z,974.18
2023-02-09T03:22:13.452Z,973.47
2023-02-09T03:27:45.567Z,973.4
2023-02-09T03:33:17.070Z,973.65
2023-02-09T03:38:49.065Z,973.79
2023-02-09T03:44:20.314Z,973.71
2023-02-09T03:49:52.168Z,973.34
2023-02-09T03:55:24.182Z,973.65
2023-02-09T04:00:55.954Z,974.34
2023-02-09T04:06:27.627Z,974.56
2023-02-09T04:11:59.071Z,974.65
2023-02-09T04:17:35.249Z,974.84
2023-02-09T04:23:07.122Z,974.95
2023-02-09T04:28:38.227Z,974.8
2023-02-09T04:34:10.004Z,975.03
2023-02-09T04:39:42.152Z,974.94
2023-02-09T04:45:13.878Z,974.64
2023-02-09T04:50:46.782Z,973.91
2023-02-09T04:56:18.546Z,973.22
2023-02-09T05:01:48.739Z,972.62
2023-02-09T05:07:20.653Z,973.1
2023-02-09T05:12:53.268Z,972.92
2023-02-09T05:18:28.756Z,973.51
2023-02-09T05:24:00.207Z,972.81
2023-02-09T05:29:31.973Z,973.94
2023-02-09T05:35:03.600Z,973.75
2023-02-09T05:40:35.681Z,974.01
2023-02-09T05:46:09.553Z,974.12
2023-02-09T05:51:38.888Z,974.21
2023-02-09T05:57:10.785Z,974.19
2023-02-09T06:02:42.495Z,974.18
2023-02-09T06:08:14.015Z,975.08
2023-02-09T06:13:45.605Z,976.28
2023-02-09T06:19:21.833Z,976.54
2023-02-09T06:24:53.744Z,976.22
2023-02-09T06:30:25.387Z,976.39
2023-02-09T06:35:57.966Z,976.15
2023-02-09T06:41:28.670Z,975.9
2023-02-09T06:47:00.663Z,975.98
2023-02-09T06:52:32.296Z,976.09
2023-02-09T06:58:04.014Z,976.12
2023-02-09T07:03:35.637Z,976.11
2023-02-09T07:09:07.437Z,976.04
2023-02-09T07:14:39.111Z,976.28
2023-02-09T07:20:15.441Z,976.39
2023-02-09T07:25:46.969Z,976.23
2023-02-09T07:31:19.066Z,976.23
2023-02-09T07:36:50.868Z,976.3
2023-02-09T07:42:24.260Z,976.4
2023-02-09T07:47:53.690Z,977.23
2023-02-09T07:53:26.170Z,977.13
2023-02-09T07:58:57.234Z,977.28
2023-02-09T08:04:29.421Z,977.58
2023-02-09T08:10:01.324Z,978.51
2023-02-09T08:15:32.504Z,979.27
2023-02-09T08:21:08.871Z,980.05
2023-02-09T08:26:40.428Z,980.72
2023-02-09T08:32:12.378Z,984.56
2023-02-09T08:37:43.857Z,980.72
2023-02-09T08:43:15.575Z,980.71
2023-02-09T08:48:48.035Z,983.06
2023-02-09T08:54:19.005Z,981.34
2023-02-09T08:59:50.758Z,981.91
2023-02-09T09:05:22.723Z,982.0
2023-02-09T09:10:54.034Z,982.86
2023-02-09T09:16:26.243Z,983.52
2023-02-09T09:22:02.264Z,984.62
2023-02-09T09:27:33.857Z,986.75
2023-02-09T09:33:05.967Z,987.43
2023-02-09T09:38:37.445Z,986.44
2023-02-09T09:44:09.207Z,985.09
2023-02-09T09:49:40.664Z,987.38
2023-02-09T09:55:12.667Z,987.85
2023-02-09T10:00:44.246Z,988.36
2023-02-09T10:06:16.028Z,989.78
2023-02-09T10:11:48.250Z,989.34
2023-02-09T10:17:19.543Z,989.51
2023-02-09T10:22:58.234Z,988.62
2023-02-09T10:28:29.543Z,984.97
2023-02-09T10:34:00.876Z,988.19
2023-02-09T10:39:32.507Z,986.87
2023-02-09T10:45:04.495Z,988.74
2023-02-09T10:50:35.938Z,987.96
2023-02-09T10:56:07.890Z,989.6
2023-02-09T11:01:40.377Z,988.93
2023-02-09T11:07:11.127Z,989.42
2023-02-09T11:12:42.885Z,988.52
2023-02-09T11:18:14.965Z,990.04
2023-02-09T11:23:52.950Z,989.48
2023-02-09T11:29:24.423Z,988.01
2023-02-09T11:34:55.986Z,989.21
2023-02-09T11:40:27.865Z,990.1
2023-02-09T11:46:00.872Z,990.27
2023-02-09T11:51:32.946Z,988.97
2023-02-09T11:57:02.972Z,988.2
2023-02-09T12:02:34.708Z,989.16
2023-02-09T12:08:06.305Z,990.53
2023-02-09T12:13:39.382Z,989.84
2023-02-09T12:19:09.821Z,989.84
2023-02-09T12:24:46.577Z,989.9
2023-02-09T12:30:18.128Z,990.44
2023-02-09T12:35:49.834Z,988.79
2023-02-09T12:41:21.469Z,989.33
2023-02-09T12:46:53.221Z,986.02
2023-02-09T12:52:24.732Z,987.73
2023-02-09T12:57:56.693Z,988.27
2023-02-09T13:03:28.828Z,989.0
2023-02-09T13:09:00.152Z,987.75
2023-02-09T13:14:31.996Z,987.81
2023-02-09T13:20:03.581Z,989.07
2023-02-09T13:25:39.632Z,988.53
2023-02-09T13:31:11.718Z,988.54
2023-02-09T13:36:42.904Z,988.51
2023-02-09T13:42:15.060Z,988.45
2023-02-09T13:47:46.463Z,987.86
2023-02-09T13:53:18.265Z,988.71
2023-02-09T13:58:50.140Z,987.84
2023-02-09T14:04:21.704Z,987.96
2023-02-09T14:09:53.224Z,988.63
2023-02-09T14:15:25.175Z,987.56
2023-02-09T14:20:56.694Z,988.51
2023-02-09T14:26:33.908Z,987.21
2023-02-09T14:32:04.600Z,986.31
2023-02-09T14:37:36.510Z,986.45
2023-02-09T14:43:08.381Z,987.3
2023-02-09T14:48:40.086Z,987.4
2023-02-09T14:54:11.836Z,988.15
2023-02-09T14:59:43.468Z,986.79
2023-02-09T15:05:15.056Z,987.51
2023-02-09T15:10:46.673Z,986.83
2023-02-09T15:16:18.383Z,987.69
2023-02-09T15:22:08.319Z,987.26
2023-02-09T15:27:28.347Z,986.56
2023-02-09T15:32:59.959Z,986.18
2023-02-09T15:38:32.337Z,986.87
2023-02-09T15:44:03.409Z,985.92
2023-02-09T15:49:35.348Z,986.06
2023-02-09T15:55:07.056Z,985.76
2023-02-09T16:00:38.742Z,986.55
2023-02-09T16:06:10.386Z,986.43
2023-02-09T16:11:42.290Z,986.31
2023-02-09T16:17:13.709Z,985.89
2023-02-09T16:22:45.754Z,985.32
2023-02-09T16:28:22.159Z,985.36
2023-02-09T16:33:53.214Z,984.8
2023-02-09T16:39:25.143Z,984.54
2023-02-09T16:44:56.722Z,984.47
2023-02-09T16:50:28.615Z,984.27
2023-02-09T16:56:00.261Z,984.07
2023-02-09T17:01:32.021Z,983.89
2023-02-09T17:07:04.172Z,983.66
2023-02-09T17:12:35.704Z,983.79
2023-02-09T17:18:07.441Z,983.77
2023-02-09T17:23:39.113Z,983.48
2023-02-09T17:29:14.935Z,983.39
2023-02-09T17:34:46.848Z,983.18
2023-02-09T17:40:18.735Z,983.09
2023-02-09T17:45:50.801Z,983.2
2023-02-09T17:51:21.943Z,982.97
2023-02-09T17:56:53.702Z,982.87
2023-02-09T18:02:25.444Z,982.77
2023-02-09T18:07:57.543Z,982.59
2023-02-09T18:13:29.026Z,982.45
2023-02-09T18:19:00.712Z,982.49
2023-02-09T18:24:32.631Z,982.65
2023-02-09T18:30:08.838Z,982.53
2023-02-09T18:35:40.411Z,982.54
2023-02-09T18:41:12.082Z,982.55
2023-02-09T18:46:44.051Z,982.51
2023-02-09T18:52:15.587Z,982.53
2023-02-09T18:57:47.753Z,982.43
2023-02-09T19:03:18.881Z,982.42
2023-02-09T19:08:50.558Z,982.49
2023-02-09T19:14:22.282Z,982.64
2023-02-09T19:19:54.094Z,982.62
2023-02-09T19:25:25.895Z,982.48
2023-02-09T19:31:04.380Z,982.36
2023-02-09T19:36:35.599Z,982.34
2023-02-09T19:42:07.514Z,982.14
2023-02-09T19:47:39.214Z,982.11
2023-02-09T19:53:10.764Z,982.03
2023-02-09T19:58:42.648Z,982.2
2023-02-09T20:04:14.108Z,981.82
2023-02-09T20:09:45.955Z,982.01
2023-02-09T20:15:17.806Z,981.58
2023-02-09T20:20:49.999Z,980.55
2023-02-09T20:26:21.057Z,981.27
2023-02-09T20:31:59.580Z,981.43
2023-02-09T20:37:31.051Z,979.87
2023-02-09T20:43:02.881Z,980.86
2023-02-09T20:48:34.341Z,981.12
2023-02-09T20:54:06.749Z,981.25
2023-02-09T20:59:37.883Z,981.32
2023-02-09T21:05:09.876Z,981.12
2023-02-09T21:10:41.961Z,980.88
2023-02-09T21:16:13.051Z,981.02
2023-02-09T21:21:44.990Z,981.24
2023-02-09T21:27:16.759Z,981.27
2023-02-09T21:32:54.593Z,981.21
2023-02-09T21:38:26.393Z,981.25
2023-02-09T21:43:58.499Z,981.35
2023-02-09T21:49:30.183Z,981.39
2023-02-09T21:55:01.784Z,981.38
2023-02-09T22:00:33.415Z,981.32
2023-02-09T22:06:04.879Z,981.31
2023-02-09T22:11:36.660Z,981.72
2023-02-09T22:17:08.300Z,981.85
2023-02-09T22:22:40.408Z,981.69
2023-02-09T22:28:11.853Z,981.71
2023-02-09T22:33:47.827Z,981.37
2023-02-09T22:39:19.767Z,981.6
2023-02-09T22:44:52.188Z,981.92
2023-02-09T22:50:23.216Z,981.89
2023-02-09T22:55:55.157Z,981.75
2023-02-09T23:01:27.285Z,982.11
2023-02-09T23:06:58.359Z,981.88
2023-02-09T23:12:30.292Z,981.97
2023-02-09T23:18:03.393Z,982.18
2023-02-09T23:23:33.489Z,982.32
2023-02-09T23:29:06.015Z,982.31
2023-02-09T23:34:43.339Z,982.27
2023-02-09T23:40:15.968Z,982.47
2023-02-09T23:45:46.760Z,982.45
2023-02-09T23:51:18.643Z,982.57
2023-02-09T23:56:50.300Z,982.65
